createdAt,value
2019-04-14T00:01:02.172Z,23.03
2019-04-14T00:03:32.545Z,27.50
2019-04-14T00:06:07.431Z,25.27
2019-04-14T00:08:37.206Z,26.83
2019-04-14T00:11:06.267Z,25.53
2019-04-14T00:13:35.007Z,26.27
2019-04-14T00:16:03.751Z,28.10
2019-04-14T00:18:33.649Z,26.53
2019-04-14T00:21:02.580Z,28.57
2019-04-14T00:23:31.240Z,25.87
2019-04-14T00:26:27.157Z,27.23
2019-04-14T00:28:57.942Z,26.47
2019-04-14T00:31:28.388Z,28.63
2019-04-14T00:33:59.193Z,28.70
2019-04-14T00:36:30.423Z,27.57
2019-04-14T00:38:59.302Z,26.33
2019-04-14T00:41:43.623Z,25.33
2019-04-14T00:44:12.239Z,28.47
2019-04-14T00:46:49.600Z,27.10
2019-04-14T00:49:18.349Z,30.47
2019-04-14T00:51:48.414Z,30.67
2019-04-14T00:54:23.968Z,32.10
2019-04-14T00:56:54.080Z,32.20
2019-04-14T00:59:23.080Z,29.53
2019-04-14T01:01:52.722Z,32.20
2019-04-14T01:04:21.525Z,35.63
2019-04-14T01:06:51.159Z,34.53
2019-04-14T01:09:20.111Z,30.30
2019-04-14T01:11:48.856Z,34.63
2019-04-14T01:14:18.968Z,34.33
2019-04-14T01:16:53.960Z,30.30
2019-04-14T01:19:22.814Z,31.80
2019-04-14T01:21:52.480Z,34.73
2019-04-14T01:24:21.367Z,32.27
2019-04-14T01:26:50.688Z,31.87
2019-04-14T01:29:20.682Z,34.63
2019-04-14T01:31:49.846Z,33.00
2019-04-14T01:34:19.425Z,34.83
2019-04-14T01:36:49.574Z,34.03
2019-04-14T01:39:19.657Z,31.13
2019-04-14T01:41:54.457Z,33.80
2019-04-14T01:44:24.135Z,34.80
2019-04-14T01:47:01.526Z,33.10
2019-04-14T01:49:31.095Z,33.27
2019-04-14T01:52:10.320Z,32.77
2019-04-14T01:54:43.416Z,30.13
2019-04-14T01:57:13.709Z,33.07
2019-04-14T01:59:42.429Z,36.60
2019-04-14T02:02:16.256Z,35.67
2019-04-14T02:04:55.266Z,33.60
2019-04-14T02:07:27.673Z,34.63
2019-04-14T02:09:57.477Z,38.90
2019-04-14T02:12:26.304Z,39.23
2019-04-14T02:14:56.255Z,36.57
2019-04-14T02:17:26.269Z,40.07
2019-04-14T02:19:55.016Z,39.57
2019-04-14T02:22:24.540Z,49.20
2019-04-14T02:24:53.290Z,41.10
2019-04-14T02:27:23.065Z,43.60
2019-04-14T02:29:51.917Z,44.37
2019-04-14T02:32:51.494Z,36.77
2019-04-14T02:35:21.048Z,47.03
2019-04-14T02:40:21.508Z,47.90
2019-04-14T02:42:46.484Z,44.47
2019-04-14T02:45:32.760Z,40.63
2019-04-14T02:50:26.387Z,46.97
2019-04-14T02:55:32.415Z,42.33
2019-04-14T03:03:16.493Z,37.27
2019-04-14T03:05:45.065Z,45.80
2019-04-14T03:08:13.130Z,50.47
2019-04-14T03:13:21.006Z,49.47
2019-04-14T03:15:47.840Z,41.33
2019-04-14T03:18:32.010Z,43.60
2019-04-14T03:23:48.702Z,51.23
2019-04-14T03:26:15.411Z,45.50
2019-04-14T03:28:51.746Z,57.07
2019-04-14T03:34:24.250Z,57.77
2019-04-14T03:39:00.812Z,60.47
2019-04-14T03:41:31.638Z,46.70
2019-04-14T03:43:54.801Z,44.53
2019-04-14T03:49:31.655Z,45.20
2019-04-14T03:51:40.063Z,54.50
2019-04-14T03:53:59.108Z,54.53
2019-04-14T03:56:13.792Z,58.73
2019-04-14T03:58:40.760Z,58.87
2019-04-14T04:01:10.476Z,59.13
2019-04-14T04:03:43.492Z,53.53
2019-04-14T04:06:13.670Z,52.63
2019-04-14T04:08:42.792Z,55.87
2019-04-14T04:11:12.557Z,51.90
2019-04-14T04:13:43.294Z,53.93
2019-04-14T04:16:13.897Z,56.17
2019-04-14T04:18:52.685Z,56.63
2019-04-14T04:21:14.780Z,71.90
2019-04-14T04:23:51.196Z,60.80
2019-04-14T04:26:30.319Z,70.50
2019-04-14T04:29:07.036Z,68.13
2019-04-14T04:31:46.530Z,68.60
2019-04-14T04:34:16.929Z,69.20
2019-04-14T04:37:03.858Z,63.97
2019-04-14T04:39:36.426Z,69.40
2019-04-14T04:42:07.057Z,69.27
2019-04-14T04:44:35.694Z,65.78
2019-04-14T04:47:07.647Z,64.80
2019-04-14T04:49:36.452Z,71.33
2019-04-14T04:52:06.207Z,60.03
2019-04-14T04:54:36.316Z,64.30
2019-04-14T04:57:05.336Z,53.73
2019-04-14T04:59:34.324Z,54.77
2019-04-14T05:02:03.150Z,54.83
2019-04-14T05:04:37.809Z,57.53
2019-04-14T05:07:07.803Z,54.57
2019-04-14T05:09:39.018Z,60.67
2019-04-14T05:12:13.228Z,59.70
2019-04-14T05:14:50.147Z,60.53
2019-04-14T05:17:23.769Z,53.83
2019-04-14T05:19:52.399Z,58.10
2019-04-14T05:22:22.248Z,52.57
2019-04-14T05:24:51.175Z,55.03
2019-04-14T05:27:21.022Z,57.57
2019-04-14T05:30:00.321Z,56.07
2019-04-14T05:32:29.095Z,58.93
2019-04-14T05:34:58.695Z,54.13
2019-04-14T05:37:27.663Z,59.20
2019-04-14T05:40:05.789Z,59.37
2019-04-14T05:42:40.796Z,61.13
2019-04-14T05:45:11.086Z,58.40
2019-04-14T05:47:41.380Z,60.47
2019-04-14T05:50:11.550Z,63.67
2019-04-14T05:52:40.531Z,61.30
2019-04-14T05:55:26.194Z,56.67
2019-04-14T05:57:57.764Z,64.77
2019-04-14T06:00:34.125Z,67.37
2019-04-14T06:03:17.546Z,66.13
2019-04-14T06:05:46.289Z,65.60
2019-04-14T06:08:20.636Z,65.30
2019-04-14T06:10:54.287Z,57.97
2019-04-14T06:13:22.972Z,52.53
2019-04-14T06:16:05.767Z,51.67
2019-04-14T06:18:40.193Z,49.47
2019-04-14T06:21:15.037Z,43.50
2019-04-14T06:23:57.238Z,44.93
2019-04-14T06:26:28.452Z,48.20
2019-04-14T06:29:18.349Z,44.60
2019-04-14T06:32:04.955Z,46.83
2019-04-14T06:34:44.321Z,45.23
2019-04-14T06:37:14.762Z,47.70
2019-04-14T06:39:48.307Z,47.67
2019-04-14T06:42:27.124Z,51.40
2019-04-14T06:44:55.912Z,48.27
2019-04-14T06:47:45.947Z,52.67
2019-04-14T06:50:20.909Z,53.67
2019-04-14T06:52:49.634Z,54.40
2019-04-14T06:55:30.578Z,24.33
2019-04-14T06:57:59.310Z,66.93
2019-04-14T07:00:31.278Z,57.53
2019-04-14T07:03:05.042Z,60.27
2019-04-14T07:05:39.460Z,64.30
2019-04-14T07:08:31.351Z,62.83
2019-04-14T07:11:32.898Z,62.83
2019-04-14T07:14:08.465Z,64.15
2019-04-14T07:16:40.321Z,64.93
2019-04-14T07:22:22.651Z,64.65
2019-04-14T07:24:52.894Z,58.87
2019-04-14T07:27:27.798Z,55.37
2019-04-14T07:30:33.758Z,55.23
2019-04-14T07:33:09.900Z,57.13
2019-04-14T07:35:40.271Z,58.90
2019-04-14T07:38:10.537Z,53.97
2019-04-14T07:40:49.365Z,60.97
2019-04-14T07:43:25.321Z,59.57
2019-04-14T07:46:07.108Z,67.23
2019-04-14T07:48:52.376Z,63.45
2019-04-14T07:51:24.027Z,65.93
2019-04-14T07:53:54.291Z,64.58
2019-04-14T07:56:48.999Z,63.80
2019-04-14T08:00:04.853Z,60.73
2019-04-14T08:02:43.840Z,65.20
2019-04-14T08:05:23.371Z,63.83
2019-04-14T08:07:57.927Z,70.37
2019-04-14T08:10:27.573Z,73.73
2019-04-14T08:12:56.166Z,52.63
2019-04-14T08:15:24.874Z,80.13
2019-04-14T08:21:09.263Z,77.60
2019-04-14T08:23:43.892Z,75.65
2019-04-14T08:26:31.448Z,74.50
2019-04-14T08:29:09.208Z,70.87
2019-04-14T08:32:11.391Z,73.40
2019-04-14T08:38:45.469Z,58.47
2019-04-14T08:41:48.331Z,71.73
2019-04-14T08:44:27.710Z,46.83
2019-04-14T08:47:12.712Z,73.67
2019-04-14T08:49:43.077Z,68.90
2019-04-14T08:52:13.369Z,66.30
2019-04-14T08:54:46.827Z,44.33
2019-04-14T08:57:28.342Z,65.73
2019-04-14T09:03:42.798Z,62.77
2019-04-14T09:06:25.069Z,77.83
2019-04-14T09:09:13.209Z,67.97
2019-04-14T09:11:46.302Z,74.13
2019-04-14T09:14:27.236Z,61.00
2019-04-14T09:17:18.393Z,75.33
2019-04-14T09:20:22.705Z,72.53
2019-04-14T09:23:51.178Z,69.87
2019-04-14T09:26:40.799Z,64.40
2019-04-14T09:29:15.321Z,70.47
2019-04-14T09:31:50.967Z,72.93
2019-04-14T09:35:01.825Z,75.40
2019-04-14T09:37:36.749Z,66.10
2019-04-14T09:40:11.874Z,62.73
2019-04-14T09:42:46.500Z,72.17
2019-04-14T09:45:21.229Z,71.23
2019-04-14T09:47:55.766Z,71.03
2019-04-14T09:50:24.733Z,72.70
2019-04-14T09:52:56.441Z,71.07
2019-04-14T09:58:00.387Z,71.87
2019-04-14T10:00:44.252Z,67.47
2019-04-14T10:03:18.924Z,68.57
2019-04-14T10:05:50.357Z,47.97
2019-04-14T10:08:27.505Z,60.17
2019-04-14T10:11:01.946Z,73.10
2019-04-14T10:13:30.602Z,69.23
2019-04-14T10:36:04.187Z,71.17
2019-04-14T10:41:56.433Z,72.40
2019-04-14T10:51:42.247Z,65.77
2019-04-14T10:54:16.386Z,68.00
2019-04-14T10:57:01.010Z,70.10
2019-04-14T10:59:34.127Z,69.73
2019-04-14T11:02:13.054Z,70.73
2019-04-14T11:04:47.626Z,68.50
2019-04-14T11:07:23.891Z,66.03
2019-04-14T11:09:54.071Z,67.03
2019-04-14T11:12:22.673Z,67.40
2019-04-14T11:14:52.446Z,62.47
2019-04-14T11:17:21.242Z,65.40
2019-04-14T11:19:56.313Z,62.67
2019-04-14T11:22:46.086Z,64.20
2019-04-14T11:25:22.246Z,57.73
2019-04-14T11:28:46.368Z,61.57
2019-04-14T11:31:52.055Z,59.53
2019-04-14T11:34:34.866Z,61.73
2019-04-14T11:37:19.940Z,55.23
2019-04-14T11:40:11.841Z,58.27
2019-04-14T11:42:51.860Z,60.25
2019-04-14T11:45:13.911Z,58.27
2019-04-14T11:53:49.040Z,56.40
2019-04-14T11:56:23.739Z,48.17
2019-04-14T11:59:02.153Z,52.88
2019-04-14T12:01:40.849Z,51.87
2019-04-14T12:04:28.636Z,51.83
2019-04-14T12:07:46.687Z,49.73
2019-04-14T12:10:15.450Z,54.07
2019-04-14T12:13:17.055Z,48.93
2019-04-14T12:15:51.898Z,51.98
2019-04-14T12:18:24.571Z,52.13
2019-04-14T12:20:56.706Z,49.97
2019-04-14T12:23:31.190Z,54.20
2019-04-14T12:26:05.539Z,49.07
2019-04-14T12:28:36.189Z,50.23
2019-04-14T12:31:08.720Z,52.33
2019-04-14T12:33:50.823Z,50.98
2019-04-14T12:36:22.578Z,55.65
2019-04-14T12:41:33.227Z,47.13
2019-04-14T12:44:08.773Z,48.13
2019-04-14T12:46:41.677Z,47.10
2019-04-14T12:49:16.322Z,48.80
2019-04-14T12:51:55.556Z,45.98
2019-04-14T12:54:25.377Z,47.67
2019-04-14T12:56:56.674Z,47.53
2019-04-14T12:59:32.697Z,44.70
2019-04-14T13:02:21.860Z,48.17
2019-04-14T13:05:03.847Z,45.20
2019-04-14T13:07:36.896Z,33.38
2019-04-14T13:10:08.169Z,33.08
2019-04-14T13:12:38.869Z,44.48
2019-04-14T13:15:30.231Z,42.17
2019-04-14T13:18:00.875Z,46.45
2019-04-14T13:20:29.615Z,44.17
2019-04-14T13:23:04.423Z,43.60
2019-04-14T13:25:37.857Z,45.08
2019-04-14T13:28:18.410Z,44.73
2019-04-14T13:30:59.689Z,30.50
2019-04-14T13:33:29.589Z,28.27
2019-04-14T13:36:07.289Z,44.38
2019-04-14T13:38:41.175Z,37.25
2019-04-14T13:41:17.098Z,39.67
2019-04-14T13:43:46.418Z,44.70
2019-04-14T13:49:44.030Z,41.33
2019-04-14T13:52:15.386Z,39.35
2019-04-14T13:54:44.014Z,33.53
2019-04-14T13:57:13.860Z,38.53
2019-04-14T13:59:59.928Z,41.25
2019-04-14T14:02:34.847Z,41.85
2019-04-14T14:05:58.953Z,38.88
2019-04-14T14:08:27.737Z,40.17
2019-04-14T14:10:58.158Z,35.07
2019-04-14T14:13:46.556Z,39.60
2019-04-14T14:16:17.007Z,37.67
2019-04-14T14:18:47.967Z,32.70
2019-04-14T14:21:35.173Z,34.13
2019-04-14T14:24:21.773Z,32.55
2019-04-14T14:26:52.077Z,36.10
2019-04-14T14:29:20.908Z,32.15
2019-04-14T14:31:49.765Z,18.82
2019-04-14T14:34:19.091Z,19.82
2019-04-14T14:36:49.071Z,29.80
2019-04-14T14:39:19.770Z,26.70
2019-04-14T14:41:49.111Z,31.68
2019-04-14T14:44:22.872Z,31.25
2019-04-14T14:46:53.825Z,28.65
2019-04-14T14:49:25.543Z,28.98
2019-04-14T14:52:10.292Z,16.85
2019-04-14T14:54:39.434Z,28.40
2019-04-14T14:57:08.384Z,29.10
2019-04-14T14:59:36.997Z,27.70
2019-04-14T15:02:08.555Z,33.40
2019-04-14T15:04:42.967Z,26.15
2019-04-14T15:07:14.870Z,32.53
2019-04-14T15:09:44.126Z,20.80
2019-04-14T15:12:13.386Z,26.57
2019-04-14T15:14:50.667Z,28.42
2019-04-14T15:17:19.752Z,26.70
2019-04-14T15:19:48.435Z,27.70
2019-04-14T15:22:18.189Z,26.30
2019-04-14T15:24:47.245Z,28.62
2019-04-14T15:27:16.191Z,27.85
2019-04-14T15:29:44.822Z,20.80
2019-04-14T15:32:13.550Z,23.00
2019-04-14T15:34:48.153Z,26.35
2019-04-14T15:37:16.752Z,18.07
2019-04-14T15:39:45.388Z,19.70
2019-04-14T15:42:14.394Z,30.20
2019-04-14T15:44:43.757Z,28.47
2019-04-14T15:47:12.803Z,26.93
2019-04-14T15:49:41.474Z,26.20
2019-04-14T15:52:10.386Z,28.10
2019-04-14T15:54:41.906Z,31.15
2019-04-14T15:57:13.350Z,26.77
2019-04-14T16:00:04.749Z,18.67
2019-04-14T16:02:38.095Z,20.77
2019-04-14T16:05:12.653Z,27.07
2019-04-14T16:07:49.315Z,27.87
2019-04-14T16:10:25.490Z,24.32
2019-04-14T16:13:13.934Z,31.25
2019-04-14T16:15:44.153Z,25.32
2019-04-14T16:18:45.036Z,22.82
2019-04-14T16:21:19.832Z,27.90
2019-04-14T16:23:54.689Z,24.07
2019-04-14T16:26:46.649Z,17.45
2019-04-14T16:32:16.288Z,27.25
2019-04-14T16:35:00.019Z,21.60
2019-04-14T16:37:55.150Z,22.30
2019-04-14T16:40:44.615Z,22.98
2019-04-14T16:43:15.426Z,22.30
2019-04-14T16:45:51.393Z,24.60
2019-04-14T16:48:29.370Z,22.20
2019-04-14T16:51:00.597Z,21.77
2019-04-14T16:53:34.176Z,21.77
2019-04-14T16:56:13.488Z,24.87
2019-04-14T16:58:46.471Z,22.57
2019-04-14T17:01:20.859Z,21.70
2019-04-14T17:03:49.623Z,23.65
2019-04-14T17:06:20.934Z,24.00
2019-04-14T17:08:51.184Z,24.45
2019-04-14T17:11:19.941Z,24.05
2019-04-14T17:14:11.049Z,26.25
2019-04-14T17:16:47.437Z,21.10
2019-04-14T17:19:47.760Z,22.30
2019-04-14T17:22:28.913Z,21.00
2019-04-14T17:25:03.681Z,22.55
2019-04-14T17:28:10.252Z,22.42
2019-04-14T17:30:40.526Z,22.98
2019-04-14T17:33:22.905Z,22.73
2019-04-14T17:36:02.163Z,21.55
2019-04-14T17:38:35.059Z,22.62
2019-04-14T17:41:10.463Z,28.80
2019-04-14T17:44:04.915Z,25.60
2019-04-14T17:46:53.122Z,23.47
2019-04-14T17:49:32.408Z,21.23
2019-04-14T17:52:19.260Z,21.70
2019-04-14T17:55:03.590Z,20.87
2019-04-14T17:57:52.397Z,24.47
2019-04-14T18:00:26.607Z,22.67
2019-04-14T18:03:02.856Z,24.87
2019-04-14T18:05:42.669Z,22.93
2019-04-14T18:08:21.536Z,25.55
2019-04-14T18:11:08.477Z,26.97
2019-04-14T18:14:19.426Z,21.33
2019-04-14T18:17:09.001Z,24.67
2019-04-14T18:19:45.193Z,23.33
2019-04-14T18:22:14.511Z,22.27
2019-04-14T18:28:16.357Z,24.30
2019-04-14T18:30:59.368Z,25.05
2019-04-14T18:33:32.443Z,23.10
2019-04-14T18:36:50.340Z,26.50
2019-04-14T18:39:50.942Z,24.53
2019-04-14T18:42:34.735Z,23.73
2019-04-14T18:45:18.778Z,25.67
2019-04-14T18:47:50.937Z,27.90
2019-04-14T18:50:30.476Z,30.77
2019-04-14T18:53:20.375Z,25.50
2019-04-14T18:55:53.574Z,24.83
2019-04-14T18:58:41.046Z,26.33
2019-04-14T19:01:17.469Z,26.67
2019-04-14T19:03:49.208Z,24.33
2019-04-14T19:06:18.526Z,27.07
2019-04-14T19:08:52.619Z,24.87
2019-04-14T19:11:46.744Z,24.73
2019-04-14T19:14:17.763Z,24.80
2019-04-14T19:16:52.122Z,25.72
2019-04-14T19:19:24.230Z,26.83
2019-04-14T19:21:55.984Z,27.83
2019-04-14T19:26:56.515Z,27.30
2019-04-14T19:29:38.719Z,25.37
2019-04-14T19:32:08.361Z,24.97
2019-04-14T19:34:37.486Z,25.13
2019-04-14T19:37:21.469Z,27.27
2019-04-14T19:39:50.064Z,27.23
2019-04-14T19:42:26.080Z,25.93
2019-04-14T19:45:01.583Z,42.20
2019-04-14T19:47:30.181Z,30.40
2019-04-14T19:49:58.833Z,33.90
2019-04-14T19:52:33.315Z,33.83
2019-04-14T19:55:02.418Z,25.90
2019-04-14T19:57:31.209Z,26.40
2019-04-14T19:59:59.801Z,24.60
2019-04-14T20:02:28.497Z,23.60
2019-04-14T20:04:57.434Z,26.73
2019-04-14T20:07:31.753Z,23.90
2019-04-14T20:10:00.554Z,25.07
2019-04-14T20:12:29.214Z,29.93
2019-04-14T20:14:57.889Z,30.00
2019-04-14T20:17:32.534Z,27.03
2019-04-14T20:20:05.479Z,27.57
2019-04-14T20:22:36.188Z,27.17
2019-04-14T20:25:08.864Z,28.47
2019-04-14T20:27:51.185Z,26.73
2019-04-14T20:30:33.622Z,26.90
2019-04-14T20:33:02.288Z,25.73
2019-04-14T20:35:30.947Z,26.13
2019-04-14T20:37:59.618Z,26.97
2019-04-14T20:40:32.258Z,26.43
2019-04-14T20:43:04.854Z,25.70
2019-04-14T20:45:33.562Z,27.70
2019-04-14T20:48:02.349Z,28.03
2019-04-14T20:50:30.966Z,25.23
2019-04-14T20:52:59.608Z,27.37
2019-04-14T20:55:28.325Z,27.83
2019-04-14T20:57:56.913Z,25.80
2019-04-14T21:00:25.910Z,30.70
2019-04-14T21:03:04.929Z,27.97
2019-04-14T21:05:38.196Z,28.60
2019-04-14T21:08:14.322Z,28.90
2019-04-14T21:10:56.208Z,27.20
2019-04-14T21:15:56.016Z,25.97
2019-04-14T21:18:28.887Z,26.23
2019-04-14T21:20:59.218Z,29.10
2019-04-14T21:23:35.355Z,26.47
2019-04-14T21:26:12.597Z,26.00
2019-04-14T21:29:01.289Z,29.07
2019-04-14T21:31:31.632Z,27.13
2019-04-14T21:34:08.144Z,27.70
2019-04-14T21:36:47.811Z,33.07
2019-04-14T21:39:40.618Z,28.13
2019-04-14T21:42:07.779Z,28.57
2019-04-14T21:44:36.437Z,27.00
2019-04-14T21:47:05.186Z,30.87
2019-04-14T21:49:33.801Z,26.53
2019-04-14T21:52:09.711Z,25.90
2019-04-14T21:54:40.745Z,26.50
2019-04-14T21:57:15.916Z,31.35
2019-04-14T22:00:06.777Z,29.13
2019-04-14T22:02:56.400Z,30.10
2019-04-14T22:05:40.210Z,29.40
2019-04-14T22:08:10.546Z,28.27
2019-04-14T22:10:40.788Z,28.77
2019-04-14T22:13:09.502Z,32.13
2019-04-14T22:15:52.822Z,25.93
2019-04-14T22:18:27.848Z,26.13
2019-04-14T22:20:56.465Z,28.33
2019-04-14T22:23:25.201Z,31.60
2019-04-14T22:25:53.861Z,29.30
2019-04-14T22:28:22.473Z,29.07
2019-04-14T22:30:51.134Z,27.70
2019-04-14T22:33:19.737Z,32.20
2019-04-14T22:35:54.332Z,29.93
2019-04-14T22:38:22.927Z,30.80
2019-04-14T22:40:51.545Z,30.90
2019-04-14T22:43:23.365Z,29.37
2019-04-14T22:48:19.924Z,31.27
2019-04-14T22:50:48.526Z,28.40
2019-04-14T22:53:17.143Z,30.73
2019-04-14T22:55:45.808Z,30.20
2019-04-14T22:58:17.517Z,32.27
2019-04-14T23:00:51.541Z,28.00
2019-04-14T23:03:24.734Z,32.17
2019-04-14T23:05:55.040Z,28.20
2019-04-14T23:08:30.899Z,31.10
2019-04-14T23:11:03.942Z,26.77
2019-04-14T23:13:39.288Z,31.90
2019-04-14T23:16:12.498Z,33.70
2019-04-14T23:19:00.986Z,28.57
2019-04-14T23:21:54.192Z,29.57
2019-04-14T23:24:24.474Z,30.93
2019-04-14T23:26:53.412Z,28.20
2019-04-14T23:29:22.181Z,30.07
2019-04-14T23:31:57.639Z,30.63
2019-04-14T23:34:26.335Z,29.17
2019-04-14T23:37:00.695Z,29.27
2019-04-14T23:39:29.364Z,30.27
2019-04-14T23:41:58.129Z,31.80
2019-04-14T23:44:26.762Z,28.50
2019-04-14T23:46:55.495Z,30.00
2019-04-14T23:49:24.161Z,31.37
2019-04-14T23:51:52.754Z,31.53
2019-04-14T23:54:22.298Z,31.77
2019-04-14T23:56:50.885Z,32.83
2019-04-14T23:59:19.555Z,29.23
